메인 페이지
METAR-TAF:

METAR-TAF

공항 :

누악쇼트, 모리타니

위도: 18-18-36N, 경도: 015-58-11W, 고도: 3m

현재 날씨관측

예보는 35분 전, 22:00시(UTC)에 발표되었습니다.
북서16kt
온도 20°C
습도 83%
기압 1015 hPa
시정: 8000m

METAR: GQNO 182200Z 32016KT 8000 NSC 20/17 Q1015 NOSIG

시각: 22:35 (22:35 UTC)

예보

예보는 5 시간 35분 전, 17:00시(UTC)에 발표되었습니다.
예보 대상 시간: 18일 18시부터 19일 24시까지 (UTC)
북서15kt
시정: 7000m

TAF: GQNO 181700Z 1818/1924 31015KT 7000 NSC

4,000개 이상의 공항 관측 자료 및 예보 (METAR 및 TAF 보고).

지도상에서 검색 가능한 기상관측소가 노란 점과 빨간 점으로 표시되어 있습니다.

기상관측소 명을 보려면 표시 위로 마우스를 이동하세요.

날씨 관측과 예보를 보려면 클릭하세요.

지도 변경 : 확대하려면 엑스 표시가 있는 녹색 버튼, 축소하려면 빼기 표시가 있는 녹색 버튼, 다음 페이지의 지도를 보려면 녹색 화살표를 클릭하세요.


METAR-TAF: